Date,TemperatureHighF,TemperatureAvgF,TemperatureLowF,DewpointHighF,DewpointAvgF,DewpointLowF,HumidityHigh,HumidityAvg,HumidityLow,PressureMaxIn,PressureMinIn,WindSpeedMaxMPH,WindSpeedAvgMPH,GustSpeedMaxMPH,PrecipitationSumIn
2013-3-1,30,28,26,27,23,21,88,82,75,0.00,40.00,10,5,21,0.00
2013-3-2,27,25,22,24,21,19,87,84,75,0.00,40.00,11,4,17,0.00
2013-3-3,27,24,22,22,20,17,87,82,72,0.00,40.00,10,5,19,0.00
2013-3-4,34,26,21,21,18,15,86,70,45,0.00,40.00,9,3,16,0.00
2013-3-5,42,29,16,25,19,14,91,69,38,0.00,40.00,9,4,17,0.00
2013-3-6,47,38,33,30,27,24,87,65,48,0.00,40.00,9,3,20,0.00
2013-3-7,39,34,29,32,30,25,91,85,70,0.00,40.00,9,3,16,0.00
2013-3-8,37,30,24,30,27,22,90,85,68,0.00,40.00,7,2,11,0.00
2013-3-9,54,36,19,34,25,18,92,68,36,0.00,40.00,9,2,14,0.00
2013-3-10,67,56,48,38,33,26,55,41,27,0.00,40.00,9,4,16,0.00
2013-3-11,62,54,43,49,41,33,91,66,35,0.00,40.00,13,5,28,0.00
2013-3-12,42,37,34,37,30,26,86,75,66,0.00,40.00,9,5,21,0.00
2013-3-13,34,30,27,28,23,14,89,73,50,0.00,40.00,16,7,32,0.00
2013-3-14,36,30,25,20,17,14,79,59,47,0.00,40.00,16,7,27,0.00
2013-3-15,43,34,23,33,28,20,91,78,61,0.00,40.00,12,3,18,0.00
2013-3-16,36,32,29,34,30,25,92,90,86,0.00,40.00,6,2,11,0.00
2013-3-17,35,30,26,27,22,18,87,72,55,0.00,40.00,7,2,14,0.00
2013-3-18,42,34,26,40,29,17,91,82,67,0.00,40.00,13,6,24,0.00
2013-3-19,42,32,27,40,22,16,91,67,54,0.00,40.00,17,8,29,0.00
2013-3-20,30,28,22,25,19,14,89,70,55,0.00,40.00,13,6,24,0.00
2013-3-21,28,23,17,25,18,12,91,81,65,0.00,40.00,12,5,17,0.00
2013-3-22,35,27,19,24,22,16,92,82,58,0.00,40.00,10,4,17,0.00
2013-3-23,41,26,10,29,19,8,90,74,49,0.00,40.00,7,1,13,0.00
2013-3-24,36,29,21,26,21,19,91,74,53,0.00,40.00,11,3,20,0.00
2013-3-25,37,34,32,35,30,24,91,87,65,0.00,40.00,9,4,18,0.00
2013-3-26,40,34,31,32,31,29,91,87,70,0.00,40.00,12,3,19,0.00
2013-3-27,42,37,32,32,29,24,91,73,48,0.00,40.00,12,6,21,0.00
2013-3-28,42,38,34,32,30,28,89,74,59,0.00,40.00,11,4,20,0.00
2013-3-29,49,40,30,33,28,21,89,64,36,0.00,40.00,14,3,24,0.00
2013-3-30,58,40,24,35,24,20,91,60,24,0.00,40.00,8,1,16,0.00
2013-3-31,54,44,35,46,36,-100,89,77,42,0.00,40.00,8,2,16,0.00